• location
  • image
mod_vvisit_countermod_vvisit_countermod_vvisit_countermod_vvisit_countermod_vvisit_countermod_vvisit_countermod_vvisit_counter
mod_vvisit_counterToday484
mod_vvisit_counterYesterday1017
mod_vvisit_counterThis week1501
mod_vvisit_counterLast week5315
mod_vvisit_counterThis month17301
mod_vvisit_counterLast month23031
mod_vvisit_counterAll days1003258

We have: 6 guests, 1 bots online
Your IP: 54.166.207.223
 , 
Today: Oct 23, 2018
Airport / Administrative information / Public procurement

Public procurement

Public procurement are available only in the Lithuanian language.

 

More information about public procurement on the website of Public Procurement Office in the Republic of Lithuania

https://pirkimai.eviesiejipirkimai.lt/login.asp?B=ppo



Today

Tuesday, 23 October 2018

Aviation Weather Forecast

[source: ADDS]
METAR
EYSA 231720Z 25008KT 9000 -DZ BKN015 07/07 Q0985 WHT TEMPO SCT011 BKN023 GRN =
TAF EYSA 231711Z 2318/2403 27014KT 9000 BKN025 TEMPO 2318/2324 5000 SHRA SCT005 BKN015CB TEMPO 2400/2403 30024G34KT BKN015CB
TAF
TAF EYSA 231711Z 2318/2403 27014KT 9000 BKN025 TEMPO 2318/2324 5000 SHRA SCT005 BKN015CB TEMPO 2400/2403 30024G34KT BKN015CB =
SR / SS: 05:14 / 15:10 UTC (EYSA 2018-10-23)

Search

Who's Online

We have 7 guests online

tic logo en